sensor_id;sensor_type;location;lat;lon;timestamp;pressure;altitude;pressure_sealevel;temperature;humidity
73501;BME280;61721;42.206;25.320;2023-04-15T00:02:17;98921.22;;;13.51;79.35
73501;BME280;61721;42.206;25.320;2023-04-15T00:04:44;98943.31;;;13.38;80.10
73501;BME280;61721;42.206;25.320;2023-04-15T00:07:12;98971.59;;;13.26;81.23
73501;BME280;61721;42.206;25.320;2023-04-15T00:09:41;98971.38;;;13.05;82.73
73501;BME280;61721;42.206;25.320;2023-04-15T00:12:10;98958.38;;;13.47;80.62
73501;BME280;61721;42.206;25.320;2023-04-15T00:14:37;98953.09;;;13.31;80.24
73501;BME280;61721;42.206;25.320;2023-04-15T00:17:04;98961.91;;;13.17;80.73
73501;BME280;61721;42.206;25.320;2023-04-15T00:19:31;98964.16;;;13.05;81.33
73501;BME280;61721;42.206;25.320;2023-04-15T00:21:59;98957.66;;;13.31;80.76
73501;BME280;61721;42.206;25.320;2023-04-15T00:24:27;98958.75;;;14.04;78.78
73501;BME280;61721;42.206;25.320;2023-04-15T00:26:57;98968.34;;;14.22;77.85
73501;BME280;61721;42.206;25.320;2023-04-15T00:29:24;98967.84;;;14.03;78.08
73501;BME280;61721;42.206;25.320;2023-04-15T00:31:52;98967.00;;;14.40;76.59
73501;BME280;61721;42.206;25.320;2023-04-15T00:34:19;98987.94;;;13.93;77.91
73501;BME280;61721;42.206;25.320;2023-04-15T00:36:48;98990.16;;;13.13;81.43
73501;BME280;61721;42.206;25.320;2023-04-15T00:39:16;98996.56;;;12.96;82.51
73501;BME280;61721;42.206;25.320;2023-04-15T00:41:43;98999.16;;;13.28;81.21
73501;BME280;61721;42.206;25.320;2023-04-15T00:44:13;98985.38;;;13.99;79.11
73501;BME280;61721;42.206;25.320;2023-04-15T00:46:40;98954.53;;;13.42;81.01
73501;BME280;61721;42.206;25.320;2023-04-15T00:49:07;98932.41;;;13.01;82.61
73501;BME280;61721;42.206;25.320;2023-04-15T00:51:34;98912.25;;;12.43;85.74
73501;BME280;61721;42.206;25.320;2023-04-15T00:54:02;98916.38;;;12.93;83.74
73501;BME280;61721;42.206;25.320;2023-04-15T00:56:30;98906.88;;;13.13;82.41
73501;BME280;61721;42.206;25.320;2023-04-15T00:58:58;98911.97;;;13.31;81.35
73501;BME280;61721;42.206;25.320;2023-04-15T01:01:27;98907.66;;;13.44;81.47
73501;BME280;61721;42.206;25.320;2023-04-15T01:03:56;98923.91;;;13.88;78.69
73501;BME280;61721;42.206;25.320;2023-04-15T01:06:23;98929.69;;;13.17;81.58
73501;BME280;61721;42.206;25.320;2023-04-15T01:08:52;98934.59;;;12.74;83.62
73501;BME280;61721;42.206;25.320;2023-04-15T01:11:19;98937.72;;;13.25;83.02
73501;BME280;61721;42.206;25.320;2023-04-15T01:13:46;98927.66;;;13.19;82.37
73501;BME280;61721;42.206;25.320;2023-04-15T01:16:14;98940.09;;;13.65;80.79
73501;BME280;61721;42.206;25.320;2023-04-15T01:18:43;98963.25;;;13.66;79.85
73501;BME280;61721;42.206;25.320;2023-04-15T01:21:12;98969.81;;;13.41;80.91
73501;BME280;61721;42.206;25.320;2023-04-15T01:23:39;98972.09;;;13.30;82.04
73501;BME280;61721;42.206;25.320;2023-04-15T01:26:08;98967.09;;;12.88;83.50
73501;BME280;61721;42.206;25.320;2023-04-15T01:28:35;98945.47;;;13.20;82.74
73501;BME280;61721;42.206;25.320;2023-04-15T01:31:07;98915.25;;;13.41;81.74
73501;BME280;61721;42.206;25.320;2023-04-15T01:33:35;98895.56;;;13.63;80.83
73501;BME280;61721;42.206;25.320;2023-04-15T01:36:03;98870.47;;;13.70;80.41
73501;BME280;61721;42.206;25.320;2023-04-15T01:38:31;98858.91;;;13.85;80.34
73501;BME280;61721;42.206;25.320;2023-04-15T01:40:59;98878.25;;;13.65;81.09
73501;BME280;61721;42.206;25.320;2023-04-15T01:43:27;98890.69;;;13.44;81.31
73501;BME280;61721;42.206;25.320;2023-04-15T01:45:55;98909.38;;;13.60;80.52
73501;BME280;61721;42.206;25.320;2023-04-15T01:48:22;98940.56;;;13.46;80.34
73501;BME280;61721;42.206;25.320;2023-04-15T01:50:49;98966.88;;;12.97;83.11
73501;BME280;61721;42.206;25.320;2023-04-15T01:53:18;98988.53;;;12.96;83.77
73501;BME280;61721;42.206;25.320;2023-04-15T01:55:45;98988.34;;;12.97;83.19
73501;BME280;61721;42.206;25.320;2023-04-15T01:58:12;98972.78;;;12.93;83.85
73501;BME280;61721;42.206;25.320;2023-04-15T02:00:41;98988.41;;;13.28;82.91
73501;BME280;61721;42.206;25.320;2023-04-15T02:03:09;98994.06;;;13.33;81.96
73501;BME280;61721;42.206;25.320;2023-04-15T02:05:36;98990.56;;;12.94;83.82
73501;BME280;61721;42.206;25.320;2023-04-15T02:08:03;98991.47;;;13.17;83.68
73501;BME280;61721;42.206;25.320;2023-04-15T02:10:30;98999.72;;;13.07;84.19
73501;BME280;61721;42.206;25.320;2023-04-15T02:12:58;98997.56;;;13.03;84.82
73501;BME280;61721;42.206;25.320;2023-04-15T02:15:25;98984.00;;;13.35;83.50
73501;BME280;61721;42.206;25.320;2023-04-15T02:17:53;98984.59;;;13.45;81.67
73501;BME280;61721;42.206;25.320;2023-04-15T02:20:22;98976.19;;;13.48;83.00
73501;BME280;61721;42.206;25.320;2023-04-15T02:22:49;98959.13;;;13.79;82.16
73501;BME280;61721;42.206;25.320;2023-04-15T02:25:17;98942.00;;;13.34;82.35
73501;BME280;61721;42.206;25.320;2023-04-15T02:27:44;98945.78;;;13.48;81.79
73501;BME280;61721;42.206;25.320;2023-04-15T02:30:12;98940.63;;;13.38;82.41
73501;BME280;61721;42.206;25.320;2023-04-15T02:32:39;98939.25;;;13.19;83.10
73501;BME280;61721;42.206;25.320;2023-04-15T02:35:11;98945.47;;;13.20;83.32
73501;BME280;61721;42.206;25.320;2023-04-15T02:37:38;98940.13;;;13.12;83.94
73501;BME280;61721;42.206;25.320;2023-04-15T02:40:09;98951.16;;;13.25;83.59
73501;BME280;61721;42.206;25.320;2023-04-15T02:42:37;98948.69;;;13.38;81.98
73501;BME280;61721;42.206;25.320;2023-04-15T02:45:05;98957.53;;;13.69;81.58
73501;BME280;61721;42.206;25.320;2023-04-15T02:47:33;98956.03;;;13.67;81.72
73501;BME280;61721;42.206;25.320;2023-04-15T02:50:02;98962.44;;;13.66;81.42
73501;BME280;61721;42.206;25.320;2023-04-15T02:52:30;98969.09;;;13.93;80.33
73501;BME280;61721;42.206;25.320;2023-04-15T02:54:58;98973.22;;;13.66;80.85
73501;BME280;61721;42.206;25.320;2023-04-15T02:57:28;98971.63;;;13.49;81.50
73501;BME280;61721;42.206;25.320;2023-04-15T02:59:55;98966.97;;;13.43;81.80
73501;BME280;61721;42.206;25.320;2023-04-15T03:02:23;98981.28;;;13.66;80.92
73501;BME280;61721;42.206;25.320;2023-04-15T03:04:53;98983.00;;;13.59;81.84
73501;BME280;61721;42.206;25.320;2023-04-15T03:07:21;98986.81;;;13.64;81.08
73501;BME280;61721;42.206;25.320;2023-04-15T03:09:50;98981.56;;;13.48;81.90
73501;BME280;61721;42.206;25.320;2023-04-15T03:12:17;98987.13;;;13.69;80.85
73501;BME280;61721;42.206;25.320;2023-04-15T03:14:44;98992.28;;;13.25;82.15
73501;BME280;61721;42.206;25.320;2023-04-15T03:17:11;98990.81;;;13.46;81.84
73501;BME280;61721;42.206;25.320;2023-04-15T03:19:39;98984.72;;;13.21;82.21
73501;BME280;61721;42.206;25.320;2023-04-15T03:22:06;98991.53;;;13.40;81.81
73501;BME280;61721;42.206;25.320;2023-04-15T03:24:33;98998.13;;;13.29;82.18
73501;BME280;61721;42.206;25.320;2023-04-15T03:27:02;98985.63;;;13.44;81.91
73501;BME280;61721;42.206;25.320;2023-04-15T03:29:30;98966.63;;;13.46;81.86
73501;BME280;61721;42.206;25.320;2023-04-15T03:31:58;98965.13;;;13.43;81.63
73501;BME280;61721;42.206;25.320;2023-04-15T03:34:25;98982.75;;;13.68;81.18
73501;BME280;61721;42.206;25.320;2023-04-15T03:36:52;99003.97;;;13.63;81.09
73501;BME280;61721;42.206;25.320;2023-04-15T03:39:19;99007.25;;;13.74;80.57
73501;BME280;61721;42.206;25.320;2023-04-15T03:41:46;99014.56;;;13.34;81.30
73501;BME280;61721;42.206;25.320;2023-04-15T03:44:15;99031.34;;;13.36;82.36
73501;BME280;61721;42.206;25.320;2023-04-15T03:46:42;99035.31;;;13.48;82.04
73501;BME280;61721;42.206;25.320;2023-04-15T03:49:10;99030.25;;;13.53;81.37
73501;BME280;61721;42.206;25.320;2023-04-15T03:51:37;99045.19;;;13.25;82.41
73501;BME280;61721;42.206;25.320;2023-04-15T03:54:04;99065.06;;;13.00;83.30
73501;BME280;61721;42.206;25.320;2023-04-15T03:56:31;99051.44;;;13.48;82.16
73501;BME280;61721;42.206;25.320;2023-04-15T03:58:59;99047.59;;;13.74;80.07
73501;BME280;61721;42.206;25.320;2023-04-15T04:01:27;99034.69;;;13.69;80.82
73501;BME280;61721;42.206;25.320;2023-04-15T04:03:54;99024.63;;;13.63;80.77
73501;BME280;61721;42.206;25.320;2023-04-15T04:06:21;99034.97;;;13.74;80.57
73501;BME280;61721;42.206;25.320;2023-04-15T04:08:50;99017.03;;;13.44;81.60
73501;BME280;61721;42.206;25.320;2023-04-15T04:11:17;99005.09;;;13.69;81.13
73501;BME280;61721;42.206;25.320;2023-04-15T04:13:44;99010.66;;;13.67;80.63
73501;BME280;61721;42.206;25.320;2023-04-15T04:16:11;99009.34;;;13.63;80.65
73501;BME280;61721;42.206;25.320;2023-04-15T04:18:40;99021.16;;;13.54;80.82
73501;BME280;61721;42.206;25.320;2023-04-15T04:21:07;99032.41;;;13.27;82.69
73501;BME280;61721;42.206;25.320;2023-04-15T04:23:34;99036.72;;;13.36;82.10
73501;BME280;61721;42.206;25.320;2023-04-15T04:26:02;99025.25;;;13.42;82.32
73501;BME280;61721;42.206;25.320;2023-04-15T04:28:29;99021.94;;;13.40;82.51
73501;BME280;61721;42.206;25.320;2023-04-15T04:30:57;99032.69;;;13.40;82.49
73501;BME280;61721;42.206;25.320;2023-04-15T04:33:26;99040.59;;;12.95;83.62
73501;BME280;61721;42.206;25.320;2023-04-15T04:35:55;99042.00;;;13.21;83.33
73501;BME280;61721;42.206;25.320;2023-04-15T04:38:22;99048.53;;;13.27;82.99
73501;BME280;61721;42.206;25.320;2023-04-15T04:40:49;99046.91;;;13.10;83.61
73501;BME280;61721;42.206;25.320;2023-04-15T04:43:17;99044.56;;;13.15;83.67
73501;BME280;61721;42.206;25.320;2023-04-15T04:45:44;99043.91;;;13.05;84.37
73501;BME280;61721;42.206;25.320;2023-04-15T04:48:11;99050.13;;;13.05;84.21
73501;BME280;61721;42.206;25.320;2023-04-15T04:50:38;99049.31;;;13.66;82.05
73501;BME280;61721;42.206;25.320;2023-04-15T04:53:07;99054.47;;;13.14;83.35
73501;BME280;61721;42.206;25.320;2023-04-15T04:55:34;99066.09;;;12.99;84.54
73501;BME280;61721;42.206;25.320;2023-04-15T04:58:02;99071.59;;;13.13;85.04
73501;BME280;61721;42.206;25.320;2023-04-15T05:00:29;99076.72;;;13.31;84.08
73501;BME280;61721;42.206;25.320;2023-04-15T05:02:56;99080.84;;;13.50;83.74
73501;BME280;61721;42.206;25.320;2023-04-15T05:05:23;99088.94;;;13.73;83.83
73501;BME280;61721;42.206;25.320;2023-04-15T05:07:51;99100.41;;;14.20;81.88
73501;BME280;61721;42.206;25.320;2023-04-15T05:10:19;99091.16;;;13.92;82.20
73501;BME280;61721;42.206;25.320;2023-04-15T05:12:46;99100.66;;;13.49;85.02
73501;BME280;61721;42.206;25.320;2023-04-15T05:15:14;99096.16;;;13.41;84.88
73501;BME280;61721;42.206;25.320;2023-04-15T05:17:41;99093.19;;;13.28;85.76
73501;BME280;61721;42.206;25.320;2023-04-15T05:20:09;99093.81;;;13.38;85.07
73501;BME280;61721;42.206;25.320;2023-04-15T05:22:36;99098.94;;;13.87;83.30
73501;BME280;61721;42.206;25.320;2023-04-15T05:25:04;99114.44;;;13.54;84.77
73501;BME280;61721;42.206;25.320;2023-04-15T05:27:34;99106.59;;;13.36;85.26
73501;BME280;61721;42.206;25.320;2023-04-15T05:30:01;99112.31;;;13.33;85.57
73501;BME280;61721;42.206;25.320;2023-04-15T05:32:28;99112.69;;;13.92;82.84
73501;BME280;61721;42.206;25.320;2023-04-15T05:34:55;99115.69;;;13.97;83.14
73501;BME280;61721;42.206;25.320;2023-04-15T05:37:22;99123.34;;;14.53;80.35
73501;BME280;61721;42.206;25.320;2023-04-15T05:39:50;99119.53;;;13.71;82.26
73501;BME280;61721;42.206;25.320;2023-04-15T05:42:17;99119.81;;;14.07;82.66
73501;BME280;61721;42.206;25.320;2023-04-15T05:44:45;99131.00;;;14.65;80.41
73501;BME280;61721;42.206;25.320;2023-04-15T05:47:13;99131.91;;;14.42;81.24
73501;BME280;61721;42.206;25.320;2023-04-15T05:49:40;99133.91;;;14.40;82.16
73501;BME280;61721;42.206;25.320;2023-04-15T05:52:07;99135.09;;;14.15;80.40
73501;BME280;61721;42.206;25.320;2023-04-15T05:54:35;99139.78;;;13.59;82.51
73501;BME280;61721;42.206;25.320;2023-04-15T05:57:02;99143.09;;;13.69;83.58
73501;BME280;61721;42.206;25.320;2023-04-15T05:59:29;99150.66;;;13.97;84.25
73501;BME280;61721;42.206;25.320;2023-04-15T06:01:58;99146.38;;;14.41;80.27
73501;BME280;61721;42.206;25.320;2023-04-15T06:04:25;99153.22;;;14.67;79.63
73501;BME280;61721;42.206;25.320;2023-04-15T06:06:52;99159.13;;;14.17;80.36
73501;BME280;61721;42.206;25.320;2023-04-15T06:09:19;99160.81;;;14.63;79.57
73501;BME280;61721;42.206;25.320;2023-04-15T06:11:46;99152.97;;;14.76;78.88
73501;BME280;61721;42.206;25.320;2023-04-15T06:14:13;99159.25;;;14.69;79.07
73501;BME280;61721;42.206;25.320;2023-04-15T06:16:42;99158.53;;;14.37;79.34
73501;BME280;61721;42.206;25.320;2023-04-15T06:19:13;99170.53;;;14.49;78.01
73501;BME280;61721;42.206;25.320;2023-04-15T06:21:41;99166.22;;;14.40;79.25
73501;BME280;61721;42.206;25.320;2023-04-15T06:24:08;99180.56;;;14.55;77.05
73501;BME280;61721;42.206;25.320;2023-04-15T06:26:35;99182.84;;;14.67;77.37
73501;BME280;61721;42.206;25.320;2023-04-15T06:29:02;99191.53;;;14.77;78.49
73501;BME280;61721;42.206;25.320;2023-04-15T06:31:29;99190.63;;;14.99;75.76
73501;BME280;61721;42.206;25.320;2023-04-15T06:33:58;99191.88;;;15.11;76.32
73501;BME280;61721;42.206;25.320;2023-04-15T06:36:26;99187.94;;;14.99;75.01
73501;BME280;61721;42.206;25.320;2023-04-15T06:38:53;99185.31;;;15.87;72.32
73501;BME280;61721;42.206;25.320;2023-04-15T06:41:21;99180.91;;;15.86;72.71
73501;BME280;61721;42.206;25.320;2023-04-15T06:43:48;99173.97;;;16.70;67.54
73501;BME280;61721;42.206;25.320;2023-04-15T06:46:16;99186.16;;;16.23;67.91
73501;BME280;61721;42.206;25.320;2023-04-15T06:48:43;99189.00;;;17.28;65.52
73501;BME280;61721;42.206;25.320;2023-04-15T06:51:10;99194.09;;;16.89;67.46
73501;BME280;61721;42.206;25.320;2023-04-15T06:53:40;99196.44;;;16.56;68.12
73501;BME280;61721;42.206;25.320;2023-04-15T06:56:08;99199.41;;;16.40;67.96
73501;BME280;61721;42.206;25.320;2023-04-15T06:58:36;99199.88;;;17.69;67.85
73501;BME280;61721;42.206;25.320;2023-04-15T07:01:03;99203.34;;;17.29;65.01
73501;BME280;61721;42.206;25.320;2023-04-15T07:03:31;99193.72;;;18.49;62.74
73501;BME280;61721;42.206;25.320;2023-04-15T07:05:58;99203.28;;;16.52;67.71
73501;BME280;61721;42.206;25.320;2023-04-15T07:08:26;99207.75;;;16.23;69.26
73501;BME280;61721;42.206;25.320;2023-04-15T07:10:54;99206.28;;;17.34;66.97
73501;BME280;61721;42.206;25.320;2023-04-15T07:13:22;99209.50;;;16.52;68.62
73501;BME280;61721;42.206;25.320;2023-04-15T07:15:49;99215.19;;;16.21;70.29
73501;BME280;61721;42.206;25.320;2023-04-15T07:18:16;99217.31;;;16.83;69.70
73501;BME280;61721;42.206;25.320;2023-04-15T07:20:43;99214.97;;;16.38;68.10
73501;BME280;61721;42.206;25.320;2023-04-15T07:23:10;99227.31;;;16.83;67.59
73501;BME280;61721;42.206;25.320;2023-04-15T07:25:37;99212.09;;;17.03;67.79
73501;BME280;61721;42.206;25.320;2023-04-15T07:28:06;99226.88;;;16.79;67.32
73501;BME280;61721;42.206;25.320;2023-04-15T07:30:33;99233.66;;;16.18;68.29
73501;BME280;61721;42.206;25.320;2023-04-15T07:33:01;99226.16;;;16.56;68.80
73501;BME280;61721;42.206;25.320;2023-04-15T07:35:28;99225.50;;;17.67;66.81
73501;BME280;61721;42.206;25.320;2023-04-15T07:37:55;99234.28;;;16.35;67.97
73501;BME280;61721;42.206;25.320;2023-04-15T07:40:22;99234.63;;;16.67;67.57
73501;BME280;61721;42.206;25.320;2023-04-15T07:42:50;99243.59;;;16.89;67.75
73501;BME280;61721;42.206;25.320;2023-04-15T07:45:20;99243.31;;;17.27;67.27
73501;BME280;61721;42.206;25.320;2023-04-15T07:47:48;99235.47;;;17.66;63.46
73501;BME280;61721;42.206;25.320;2023-04-15T07:50:16;99243.72;;;16.60;67.47
73501;BME280;61721;42.206;25.320;2023-04-15T07:52:44;99242.84;;;17.51;66.57
73501;BME280;61721;42.206;25.320;2023-04-15T07:55:11;99253.88;;;17.22;65.01
73501;BME280;61721;42.206;25.320;2023-04-15T07:57:38;99250.78;;;17.03;64.56
73501;BME280;61721;42.206;25.320;2023-04-15T08:00:07;99249.22;;;18.06;60.99
73501;BME280;61721;42.206;25.320;2023-04-15T08:02:36;99255.75;;;17.83;63.63
73501;BME280;61721;42.206;25.320;2023-04-15T08:05:03;99254.91;;;18.17;62.16
73501;BME280;61721;42.206;25.320;2023-04-15T08:07:32;99250.97;;;19.00;59.59
73501;BME280;61721;42.206;25.320;2023-04-15T08:09:59;99239.75;;;18.36;60.88
73501;BME280;61721;42.206;25.320;2023-04-15T08:12:26;99248.97;;;17.94;61.79
73501;BME280;61721;42.206;25.320;2023-04-15T08:14:54;99256.69;;;17.63;61.41
73501;BME280;61721;42.206;25.320;2023-04-15T08:17:22;99253.41;;;17.67;60.10
73501;BME280;61721;42.206;25.320;2023-04-15T08:19:50;99245.53;;;16.74;64.29
73501;BME280;61721;42.206;25.320;2023-04-15T08:22:18;99254.91;;;16.99;65.43
73501;BME280;61721;42.206;25.320;2023-04-15T08:24:45;99242.44;;;18.23;62.06
73501;BME280;61721;42.206;25.320;2023-04-15T08:27:12;99239.13;;;18.34;61.99
73501;BME280;61721;42.206;25.320;2023-04-15T08:29:39;99240.59;;;17.82;59.59
73501;BME280;61721;42.206;25.320;2023-04-15T08:32:06;99241.59;;;18.22;59.26
73501;BME280;61721;42.206;25.320;2023-04-15T08:34:34;99246.44;;;19.53;58.26
73501;BME280;61721;42.206;25.320;2023-04-15T08:37:03;99237.75;;;20.54;55.01
73501;BME280;61721;42.206;25.320;2023-04-15T08:39:31;99237.16;;;19.94;55.98
73501;BME280;61721;42.206;25.320;2023-04-15T08:42:00;99236.22;;;20.20;54.24
73501;BME280;61721;42.206;25.320;2023-04-15T08:44:29;99235.34;;;20.32;54.66
73501;BME280;61721;42.206;25.320;2023-04-15T08:47:00;99232.63;;;20.77;53.36
73501;BME280;61721;42.206;25.320;2023-04-15T08:49:29;99248.72;;;19.70;54.70
73501;BME280;61721;42.206;25.320;2023-04-15T08:51:58;99241.72;;;20.89;52.66
73501;BME280;61721;42.206;25.320;2023-04-15T08:54:27;99250.88;;;21.51;52.45
73501;BME280;61721;42.206;25.320;2023-04-15T08:56:56;99246.06;;;20.65;53.16
73501;BME280;61721;42.206;25.320;2023-04-15T08:59:25;99248.25;;;20.43;54.04
73501;BME280;61721;42.206;25.320;2023-04-15T09:01:52;99251.56;;;19.88;55.08
73501;BME280;61721;42.206;25.320;2023-04-15T09:04:21;99257.19;;;19.93;53.94
73501;BME280;61721;42.206;25.320;2023-04-15T09:06:48;99251.00;;;19.40;55.31
73501;BME280;61721;42.206;25.320;2023-04-15T09:09:16;99236.09;;;20.84;52.02
73501;BME280;61721;42.206;25.320;2023-04-15T09:11:45;99232.19;;;21.54;50.93
73501;BME280;61721;42.206;25.320;2023-04-15T09:14:14;99235.97;;;21.78;49.68
73501;BME280;61721;42.206;25.320;2023-04-15T09:16:58;99232.59;;;22.19;48.67
73501;BME280;61721;42.206;25.320;2023-04-15T09:19:26;99234.19;;;21.22;48.83
73501;BME280;61721;42.206;25.320;2023-04-15T09:21:55;99236.25;;;20.13;51.22
73501;BME280;61721;42.206;25.320;2023-04-15T09:24:22;99238.41;;;20.87;49.32
73501;BME280;61721;42.206;25.320;2023-04-15T09:26:53;99230.59;;;20.15;52.59
73501;BME280;61721;42.206;25.320;2023-04-15T09:29:23;99235.13;;;18.97;50.26
73501;BME280;61721;42.206;25.320;2023-04-15T09:31:51;99216.44;;;19.99;51.24
73501;BME280;61721;42.206;25.320;2023-04-15T09:34:19;99227.63;;;19.06;51.82
73501;BME280;61721;42.206;25.320;2023-04-15T09:36:56;99212.91;;;19.99;49.86
73501;BME280;61721;42.206;25.320;2023-04-15T09:39:23;99206.97;;;20.15;50.30
73501;BME280;61721;42.206;25.320;2023-04-15T09:42:09;99220.91;;;20.76;47.95
73501;BME280;61721;42.206;25.320;2023-04-15T09:44:37;99208.34;;;21.31;48.28
73501;BME280;61721;42.206;25.320;2023-04-15T09:47:04;99207.78;;;21.84;46.69
73501;BME280;61721;42.206;25.320;2023-04-15T09:49:32;99200.75;;;20.84;47.06
73501;BME280;61721;42.206;25.320;2023-04-15T09:52:00;99198.53;;;21.49;46.93
73501;BME280;61721;42.206;25.320;2023-04-15T09:54:35;99200.03;;;21.88;42.58
73501;BME280;61721;42.206;25.320;2023-04-15T09:57:06;99200.97;;;21.57;47.12
73501;BME280;61721;42.206;25.320;2023-04-15T09:59:35;99201.53;;;20.60;47.99
73501;BME280;61721;42.206;25.320;2023-04-15T10:02:04;99191.34;;;20.48;49.72
73501;BME280;61721;42.206;25.320;2023-04-15T10:04:34;99191.94;;;21.99;44.64
73501;BME280;61721;42.206;25.320;2023-04-15T10:07:03;99183.97;;;22.46;44.13
73501;BME280;61721;42.206;25.320;2023-04-15T10:09:31;99183.38;;;21.77;44.60
73501;BME280;61721;42.206;25.320;2023-04-15T10:11:59;99179.66;;;21.90;45.45
73501;BME280;61721;42.206;25.320;2023-04-15T10:14:32;99172.84;;;20.32;46.90
73501;BME280;61721;42.206;25.320;2023-04-15T10:17:04;99173.19;;;19.98;46.68
73501;BME280;61721;42.206;25.320;2023-04-15T10:19:33;99168.00;;;20.97;44.73
73501;BME280;61721;42.206;25.320;2023-04-15T10:22:02;99173.31;;;20.61;46.21
73501;BME280;61721;42.206;25.320;2023-04-15T10:24:35;99160.91;;;20.96;44.75
73501;BME280;61721;42.206;25.320;2023-04-15T10:27:04;99162.00;;;20.57;43.92
73501;BME280;61721;42.206;25.320;2023-04-15T10:29:33;99165.53;;;21.39;43.23
73501;BME280;61721;42.206;25.320;2023-04-15T10:32:02;99148.78;;;21.78;46.23
73501;BME280;61721;42.206;25.320;2023-04-15T10:34:48;99166.66;;;20.57;45.11
73501;BME280;61721;42.206;25.320;2023-04-15T10:37:20;99149.78;;;21.84;43.37
73501;BME280;61721;42.206;25.320;2023-04-15T10:39:47;99149.84;;;21.95;44.64
73501;BME280;61721;42.206;25.320;2023-04-15T10:42:16;99147.84;;;21.84;45.04
73501;BME280;61721;42.206;25.320;2023-04-15T10:44:48;99153.63;;;22.72;43.12
73501;BME280;61721;42.206;25.320;2023-04-15T10:47:18;99146.94;;;21.17;47.88
73501;BME280;61721;42.206;25.320;2023-04-15T10:49:49;99149.81;;;21.59;46.67
73501;BME280;61721;42.206;25.320;2023-04-15T10:52:17;99144.69;;;22.05;44.95
73501;BME280;61721;42.206;25.320;2023-04-15T10:54:45;99144.72;;;22.77;42.76
73501;BME280;61721;42.206;25.320;2023-04-15T10:57:20;99147.09;;;20.98;43.11
73501;BME280;61721;42.206;25.320;2023-04-15T11:00:08;99149.47;;;21.12;45.22
73501;BME280;61721;42.206;25.320;2023-04-15T11:02:45;99142.22;;;20.75;46.36
73501;BME280;61721;42.206;25.320;2023-04-15T11:05:13;99146.53;;;21.14;46.06
73501;BME280;61721;42.206;25.320;2023-04-15T11:07:48;99135.31;;;22.01;44.95
73501;BME280;61721;42.206;25.320;2023-04-15T11:10:49;99132.28;;;22.09;44.67
73501;BME280;61721;42.206;25.320;2023-04-15T11:13:19;99129.00;;;22.49;43.52
73501;BME280;61721;42.206;25.320;2023-04-15T11:15:48;99123.53;;;22.49;45.06
73501;BME280;61721;42.206;25.320;2023-04-15T11:18:19;99120.72;;;21.77;45.52
73501;BME280;61721;42.206;25.320;2023-04-15T11:20:50;99135.13;;;22.74;42.70
73501;BME280;61721;42.206;25.320;2023-04-15T11:23:29;99127.94;;;23.15;42.79
73501;BME280;61721;42.206;25.320;2023-04-15T11:25:57;99113.94;;;22.16;45.53
73501;BME280;61721;42.206;25.320;2023-04-15T11:28:26;99116.75;;;22.93;42.73
73501;BME280;61721;42.206;25.320;2023-04-15T11:30:53;99111.34;;;21.55;45.30
73501;BME280;61721;42.206;25.320;2023-04-15T11:33:23;99122.53;;;22.32;45.45
73501;BME280;61721;42.206;25.320;2023-04-15T11:35:52;99122.22;;;23.05;43.77
73501;BME280;61721;42.206;25.320;2023-04-15T11:38:20;99117.38;;;22.53;44.62
73501;BME280;61721;42.206;25.320;2023-04-15T11:40:49;99108.34;;;22.94;43.93
73501;BME280;61721;42.206;25.320;2023-04-15T11:43:20;99106.19;;;23.08;42.60
73501;BME280;61721;42.206;25.320;2023-04-15T11:45:51;99099.44;;;22.87;43.85
73501;BME280;61721;42.206;25.320;2023-04-15T11:48:19;99101.19;;;23.17;42.54
73501;BME280;61721;42.206;25.320;2023-04-15T11:50:52;99094.50;;;22.13;44.24
73501;BME280;61721;42.206;25.320;2023-04-15T11:53:21;99091.59;;;23.02;42.29
73501;BME280;61721;42.206;25.320;2023-04-15T11:55:50;99085.72;;;21.93;44.41
73501;BME280;61721;42.206;25.320;2023-04-15T11:58:19;99076.47;;;22.53;43.57
73501;BME280;61721;42.206;25.320;2023-04-15T12:00:48;99077.94;;;23.02;42.17
73501;BME280;61721;42.206;25.320;2023-04-15T12:03:21;99073.72;;;22.42;43.23
73501;BME280;61721;42.206;25.320;2023-04-15T12:06:12;99076.13;;;22.50;44.23
73501;BME280;61721;42.206;25.320;2023-04-15T12:09:07;99076.03;;;23.50;42.58
73501;BME280;61721;42.206;25.320;2023-04-15T12:11:42;99068.69;;;23.50;42.51
73501;BME280;61721;42.206;25.320;2023-04-15T12:14:23;99063.06;;;22.52;44.48
73501;BME280;61721;42.206;25.320;2023-04-15T12:16:51;99066.78;;;23.51;41.88
73501;BME280;61721;42.206;25.320;2023-04-15T12:19:23;99063.00;;;22.29;43.53
73501;BME280;61721;42.206;25.320;2023-04-15T12:21:54;99065.84;;;22.87;42.86
73501;BME280;61721;42.206;25.320;2023-04-15T12:24:23;99065.22;;;21.90;43.83
73501;BME280;61721;42.206;25.320;2023-04-15T12:26:52;99063.72;;;21.76;42.80
73501;BME280;61721;42.206;25.320;2023-04-15T12:29:23;99055.41;;;22.72;44.12
73501;BME280;61721;42.206;25.320;2023-04-15T12:31:53;99052.22;;;24.02;42.79
73501;BME280;61721;42.206;25.320;2023-04-15T12:34:26;99046.84;;;22.92;41.81
73501;BME280;61721;42.206;25.320;2023-04-15T12:36:56;99048.25;;;22.06;42.92
73501;BME280;61721;42.206;25.320;2023-04-15T12:39:23;99048.09;;;22.01;43.03
73501;BME280;61721;42.206;25.320;2023-04-15T12:41:51;99032.59;;;23.36;42.87
73501;BME280;61721;42.206;25.320;2023-04-15T12:44:18;99039.16;;;22.12;42.92
73501;BME280;61721;42.206;25.320;2023-04-15T12:46:46;99037.78;;;22.33;43.46
73501;BME280;61721;42.206;25.320;2023-04-15T12:49:15;99041.59;;;22.44;43.09
73501;BME280;61721;42.206;25.320;2023-04-15T12:51:45;99032.44;;;23.43;41.43
73501;BME280;61721;42.206;25.320;2023-04-15T12:54:15;99033.88;;;22.52;43.55
73501;BME280;61721;42.206;25.320;2023-04-15T12:56:42;99031.34;;;22.28;44.06
73501;BME280;61721;42.206;25.320;2023-04-15T12:59:09;99043.50;;;22.67;44.21